sensor_id;sensor_type;location;lat;lon;timestamp;temperature;humidity
24224;DHT22;12359;49.716;9.212;2023-07-02T00:00:05;18.60;99.90
24224;DHT22;12359;49.716;9.212;2023-07-02T00:02:31;18.60;99.90
24224;DHT22;12359;49.716;9.212;2023-07-02T00:04:56;18.60;99.90
24224;DHT22;12359;49.716;9.212;2023-07-02T00:07:22;18.50;99.90
24224;DHT22;12359;49.716;9.212;2023-07-02T00:09:48;18.50;99.90
24224;DHT22;12359;49.716;9.212;2023-07-02T00:12:14;18.50;99.90
24224;DHT22;12359;49.716;9.212;2023-07-02T00:14:40;18.60;94.40
24224;DHT22;12359;49.716;9.212;2023-07-02T00:17:05;18.60;42.00
24224;DHT22;12359;49.716;9.212;2023-07-02T00:19:31;18.60;25.20
24224;DHT22;12359;49.716;9.212;2023-07-02T00:21:58;18.60;1.00
24224;DHT22;12359;49.716;9.212;2023-07-02T00:24:23;18.60;1.00
24224;DHT22;12359;49.716;9.212;2023-07-02T00:26:49;18.60;1.00
24224;DHT22;12359;49.716;9.212;2023-07-02T00:29:15;18.60;1.00
24224;DHT22;12359;49.716;9.212;2023-07-02T00:31:40;18.60;99.90
24224;DHT22;12359;49.716;9.212;2023-07-02T00:34:06;18.60;99.90
24224;DHT22;12359;49.716;9.212;2023-07-02T00:36:32;18.60;99.90
24224;DHT22;12359;49.716;9.212;2023-07-02T00:38:58;18.60;99.90
24224;DHT22;12359;49.716;9.212;2023-07-02T00:41:23;18.60;99.90
24224;DHT22;12359;49.716;9.212;2023-07-02T00:43:49;18.50;99.90
24224;DHT22;12359;49.716;9.212;2023-07-02T00:46:18;18.50;99.90
24224;DHT22;12359;49.716;9.212;2023-07-02T00:48:51;18.50;1.00
24224;DHT22;12359;49.716;9.212;2023-07-02T00:51:27;18.50;99.90
24224;DHT22;12359;49.716;9.212;2023-07-02T00:53:53;18.40;99.90
24224;DHT22;12359;49.716;9.212;2023-07-02T00:56:20;18.40;67.40
24224;DHT22;12359;49.716;9.212;2023-07-02T00:58:47;18.40;1.00
24224;DHT22;12359;49.716;9.212;2023-07-02T01:01:17;18.30;99.90
24224;DHT22;12359;49.716;9.212;2023-07-02T01:04:01;18.30;99.90
24224;DHT22;12359;49.716;9.212;2023-07-02T01:06:32;18.30;99.90
24224;DHT22;12359;49.716;9.212;2023-07-02T01:09:00;18.30;99.90
24224;DHT22;12359;49.716;9.212;2023-07-02T01:11:38;18.20;99.90
24224;DHT22;12359;49.716;9.212;2023-07-02T01:14:15;18.20;99.90
24224;DHT22;12359;49.716;9.212;2023-07-02T01:16:42;18.20;99.90
24224;DHT22;12359;49.716;9.212;2023-07-02T01:20:04;18.20;99.90
24224;DHT22;12359;49.716;9.212;2023-07-02T01:22:06;18.10;99.90
24224;DHT22;12359;49.716;9.212;2023-07-02T01:24:33;18.10;99.90
24224;DHT22;12359;49.716;9.212;2023-07-02T01:26:58;18.00;99.90
24224;DHT22;12359;49.716;9.212;2023-07-02T01:29:29;18.00;58.90
24224;DHT22;12359;49.716;9.212;2023-07-02T01:31:56;18.00;99.90
24224;DHT22;12359;49.716;9.212;2023-07-02T01:34:22;17.90;99.90
24224;DHT22;12359;49.716;9.212;2023-07-02T01:36:48;17.90;99.90
24224;DHT22;12359;49.716;9.212;2023-07-02T01:39:14;17.90;99.90
24224;DHT22;12359;49.716;9.212;2023-07-02T01:41:48;17.80;99.90
24224;DHT22;12359;49.716;9.212;2023-07-02T01:44:14;17.80;99.90
24224;DHT22;12359;49.716;9.212;2023-07-02T01:46:40;17.80;99.90
24224;DHT22;12359;49.716;9.212;2023-07-02T01:49:06;17.80;99.90
24224;DHT22;12359;49.716;9.212;2023-07-02T01:51:32;17.70;1.00
24224;DHT22;12359;49.716;9.212;2023-07-02T01:53:58;17.60;1.00
24224;DHT22;12359;49.716;9.212;2023-07-02T01:56:24;17.60;19.50
24224;DHT22;12359;49.716;9.212;2023-07-02T01:58:49;17.50;99.90
24224;DHT22;12359;49.716;9.212;2023-07-02T02:01:15;17.60;99.90
24224;DHT22;12359;49.716;9.212;2023-07-02T02:03:41;17.50;99.90
24224;DHT22;12359;49.716;9.212;2023-07-02T02:06:07;17.50;99.90
24224;DHT22;12359;49.716;9.212;2023-07-02T02:08:33;17.50;99.90
24224;DHT22;12359;49.716;9.212;2023-07-02T02:10:58;17.40;99.90
24224;DHT22;12359;49.716;9.212;2023-07-02T02:13:26;17.40;99.90
24224;DHT22;12359;49.716;9.212;2023-07-02T02:15:53;17.30;1.00
24224;DHT22;12359;49.716;9.212;2023-07-02T02:18:19;17.20;1.00
24224;DHT22;12359;49.716;9.212;2023-07-02T02:20:45;17.20;48.60
24224;DHT22;12359;49.716;9.212;2023-07-02T02:23:11;17.10;99.90
24224;DHT22;12359;49.716;9.212;2023-07-02T02:25:36;17.10;99.90
24224;DHT22;12359;49.716;9.212;2023-07-02T02:28:02;17.00;99.90
24224;DHT22;12359;49.716;9.212;2023-07-02T02:30:28;17.00;99.90
24224;DHT22;12359;49.716;9.212;2023-07-02T02:32:54;16.80;99.90
24224;DHT22;12359;49.716;9.212;2023-07-02T02:35:19;16.70;99.90
24224;DHT22;12359;49.716;9.212;2023-07-02T02:37:45;16.70;1.00
24224;DHT22;12359;49.716;9.212;2023-07-02T02:40:11;16.60;1.00
24224;DHT22;12359;49.716;9.212;2023-07-02T02:42:38;16.50;1.00
24224;DHT22;12359;49.716;9.212;2023-07-02T02:45:05;16.40;28.40
24224;DHT22;12359;49.716;9.212;2023-07-02T02:47:30;16.30;68.00
24224;DHT22;12359;49.716;9.212;2023-07-02T02:49:56;16.20;99.90
24224;DHT22;12359;49.716;9.212;2023-07-02T02:52:22;16.10;99.90
24224;DHT22;12359;49.716;9.212;2023-07-02T02:54:47;16.00;99.90
24224;DHT22;12359;49.716;9.212;2023-07-02T02:57:13;16.00;99.90
24224;DHT22;12359;49.716;9.212;2023-07-02T02:59:39;15.90;99.90
24224;DHT22;12359;49.716;9.212;2023-07-02T03:02:04;15.80;99.90
24224;DHT22;12359;49.716;9.212;2023-07-02T03:04:30;15.70;99.90
24224;DHT22;12359;49.716;9.212;2023-07-02T03:06:56;15.60;99.90
24224;DHT22;12359;49.716;9.212;2023-07-02T03:09:22;15.60;99.90
24224;DHT22;12359;49.716;9.212;2023-07-02T03:11:48;15.50;99.90
24224;DHT22;12359;49.716;9.212;2023-07-02T03:14:14;15.50;99.90
24224;DHT22;12359;49.716;9.212;2023-07-02T03:16:43;15.40;99.90
24224;DHT22;12359;49.716;9.212;2023-07-02T03:19:10;15.30;99.90
24224;DHT22;12359;49.716;9.212;2023-07-02T03:21:36;15.30;99.90
24224;DHT22;12359;49.716;9.212;2023-07-02T03:24:02;15.30;99.90
24224;DHT22;12359;49.716;9.212;2023-07-02T03:26:27;15.30;99.90
24224;DHT22;12359;49.716;9.212;2023-07-02T03:28:53;15.30;99.90
24224;DHT22;12359;49.716;9.212;2023-07-02T03:31:19;15.20;99.90
24224;DHT22;12359;49.716;9.212;2023-07-02T03:33:44;15.20;99.90
24224;DHT22;12359;49.716;9.212;2023-07-02T03:36:10;15.20;99.90
24224;DHT22;12359;49.716;9.212;2023-07-02T03:38:36;15.20;99.90
24224;DHT22;12359;49.716;9.212;2023-07-02T03:41:01;15.20;99.90
24224;DHT22;12359;49.716;9.212;2023-07-02T03:43:27;15.10;99.90
24224;DHT22;12359;49.716;9.212;2023-07-02T03:45:53;15.20;99.90
24224;DHT22;12359;49.716;9.212;2023-07-02T03:48:18;15.20;99.90
24224;DHT22;12359;49.716;9.212;2023-07-02T03:50:44;15.30;99.90
24224;DHT22;12359;49.716;9.212;2023-07-02T03:53:10;15.30;99.90
24224;DHT22;12359;49.716;9.212;2023-07-02T03:55:35;15.30;99.90
24224;DHT22;12359;49.716;9.212;2023-07-02T03:58:01;15.30;99.90
24224;DHT22;12359;49.716;9.212;2023-07-02T04:00:27;15.30;99.90
24224;DHT22;12359;49.716;9.212;2023-07-02T04:02:53;15.30;99.90
24224;DHT22;12359;49.716;9.212;2023-07-02T04:05:18;15.40;99.90
24224;DHT22;12359;49.716;9.212;2023-07-02T04:07:45;15.40;99.90
24224;DHT22;12359;49.716;9.212;2023-07-02T04:10:11;15.40;99.90
24224;DHT22;12359;49.716;9.212;2023-07-02T04:12:37;15.50;97.70
24224;DHT22;12359;49.716;9.212;2023-07-02T04:15:03;15.50;52.80
24224;DHT22;12359;49.716;9.212;2023-07-02T04:17:29;15.60;15.70
24224;DHT22;12359;49.716;9.212;2023-07-02T04:19:55;15.70;1.00
24224;DHT22;12359;49.716;9.212;2023-07-02T04:22:20;15.80;1.00
24224;DHT22;12359;49.716;9.212;2023-07-02T04:24:46;15.90;1.00
24224;DHT22;12359;49.716;9.212;2023-07-02T04:27:17;16.00;1.00
24224;DHT22;12359;49.716;9.212;2023-07-02T04:29:45;16.10;99.90
24224;DHT22;12359;49.716;9.212;2023-07-02T04:32:11;16.20;99.90
24224;DHT22;12359;49.716;9.212;2023-07-02T04:34:37;16.30;99.90
24224;DHT22;12359;49.716;9.212;2023-07-02T04:37:06;16.40;99.90
24224;DHT22;12359;49.716;9.212;2023-07-02T04:39:31;16.50;99.90
24224;DHT22;12359;49.716;9.212;2023-07-02T04:41:57;16.60;70.50
24224;DHT22;12359;49.716;9.212;2023-07-02T04:44:24;16.70;52.40
24224;DHT22;12359;49.716;9.212;2023-07-02T04:47:00;16.90;1.00
24224;DHT22;12359;49.716;9.212;2023-07-02T04:49:26;17.00;99.90
24224;DHT22;12359;49.716;9.212;2023-07-02T04:51:52;17.20;1.00
24224;DHT22;12359;49.716;9.212;2023-07-02T04:54:20;17.30;91.50
24224;DHT22;12359;49.716;9.212;2023-07-02T04:56:46;17.50;99.90
24224;DHT22;12359;49.716;9.212;2023-07-02T04:59:12;17.50;1.30
24224;DHT22;12359;49.716;9.212;2023-07-02T05:01:37;17.70;99.90
24224;DHT22;12359;49.716;9.212;2023-07-02T05:04:05;17.90;68.10
24224;DHT22;12359;49.716;9.212;2023-07-02T05:06:31;18.00;1.00
24224;DHT22;12359;49.716;9.212;2023-07-02T05:08:57;18.10;99.90
24224;DHT22;12359;49.716;9.212;2023-07-02T05:11:22;18.20;99.90
24224;DHT22;12359;49.716;9.212;2023-07-02T05:13:48;18.40;1.00
24224;DHT22;12359;49.716;9.212;2023-07-02T05:16:14;18.50;99.90
24224;DHT22;12359;49.716;9.212;2023-07-02T05:18:40;18.70;99.90
24224;DHT22;12359;49.716;9.212;2023-07-02T05:21:06;18.70;99.90
24224;DHT22;12359;49.716;9.212;2023-07-02T05:23:32;18.80;40.40
24224;DHT22;12359;49.716;9.212;2023-07-02T05:25:57;18.90;99.90
24224;DHT22;12359;49.716;9.212;2023-07-02T05:28:24;19.10;99.90
24224;DHT22;12359;49.716;9.212;2023-07-02T05:30:50;19.20;99.90
24224;DHT22;12359;49.716;9.212;2023-07-02T05:33:16;19.30;25.80
24224;DHT22;12359;49.716;9.212;2023-07-02T05:35:42;19.50;1.00
24224;DHT22;12359;49.716;9.212;2023-07-02T05:38:07;19.70;1.00
24224;DHT22;12359;49.716;9.212;2023-07-02T05:40:33;19.80;99.90
24224;DHT22;12359;49.716;9.212;2023-07-02T05:42:59;19.80;99.90
24224;DHT22;12359;49.716;9.212;2023-07-02T05:45:24;19.90;99.90
24224;DHT22;12359;49.716;9.212;2023-07-02T05:47:52;20.10;99.90
24224;DHT22;12359;49.716;9.212;2023-07-02T05:50:18;20.20;80.40
24224;DHT22;12359;49.716;9.212;2023-07-02T05:52:44;20.40;53.80
24224;DHT22;12359;49.716;9.212;2023-07-02T05:55:09;20.60;31.70
24224;DHT22;12359;49.716;9.212;2023-07-02T05:57:38;20.70;4.20
24224;DHT22;12359;49.716;9.212;2023-07-02T06:00:07;21.00;1.00
24224;DHT22;12359;49.716;9.212;2023-07-02T06:02:33;21.10;1.00
24224;DHT22;12359;49.716;9.212;2023-07-02T06:04:59;21.10;1.00
24224;DHT22;12359;49.716;9.212;2023-07-02T06:07:26;21.00;1.00
24224;DHT22;12359;49.716;9.212;2023-07-02T06:09:51;21.00;1.00
24224;DHT22;12359;49.716;9.212;2023-07-02T06:12:17;20.90;1.00
24224;DHT22;12359;49.716;9.212;2023-07-02T06:14:43;20.80;1.00
24224;DHT22;12359;49.716;9.212;2023-07-02T06:17:09;21.00;1.00
24224;DHT22;12359;49.716;9.212;2023-07-02T06:19:36;21.10;1.00
24224;DHT22;12359;49.716;9.212;2023-07-02T06:22:02;21.30;1.00
24224;DHT22;12359;49.716;9.212;2023-07-02T06:24:28;21.50;1.00
24224;DHT22;12359;49.716;9.212;2023-07-02T06:26:54;21.70;1.00
24224;DHT22;12359;49.716;9.212;2023-07-02T06:29:19;22.10;99.90
24224;DHT22;12359;49.716;9.212;2023-07-02T06:31:45;22.40;99.90
24224;DHT22;12359;49.716;9.212;2023-07-02T06:34:11;22.40;99.90
24224;DHT22;12359;49.716;9.212;2023-07-02T06:36:36;22.80;99.90
24224;DHT22;12359;49.716;9.212;2023-07-02T06:39:02;23.40;99.90
24224;DHT22;12359;49.716;9.212;2023-07-02T06:41:28;23.90;99.90
24224;DHT22;12359;49.716;9.212;2023-07-02T06:43:53;24.30;99.90
24224;DHT22;12359;49.716;9.212;2023-07-02T06:46:19;24.60;71.40
24224;DHT22;12359;49.716;9.212;2023-07-02T06:48:45;24.70;1.00
24224;DHT22;12359;49.716;9.212;2023-07-02T06:51:11;24.30;1.00
24224;DHT22;12359;49.716;9.212;2023-07-02T06:53:41;23.70;1.00
24224;DHT22;12359;49.716;9.212;2023-07-02T06:56:08;23.40;1.00
24224;DHT22;12359;49.716;9.212;2023-07-02T06:58:34;23.20;1.90
24224;DHT22;12359;49.716;9.212;2023-07-02T07:01:00;23.90;4.70
24224;DHT22;12359;49.716;9.212;2023-07-02T07:03:26;24.70;1.00
24224;DHT22;12359;49.716;9.212;2023-07-02T07:05:53;24.40;1.00
24224;DHT22;12359;49.716;9.212;2023-07-02T07:08:18;23.90;1.00
24224;DHT22;12359;49.716;9.212;2023-07-02T07:10:44;23.50;1.00
24224;DHT22;12359;49.716;9.212;2023-07-02T07:13:11;22.90;1.00
24224;DHT22;12359;49.716;9.212;2023-07-02T07:15:37;22.60;1.00
24224;DHT22;12359;49.716;9.212;2023-07-02T07:18:03;22.40;1.00
24224;DHT22;12359;49.716;9.212;2023-07-02T07:20:30;22.30;1.00
24224;DHT22;12359;49.716;9.212;2023-07-02T07:22:56;22.10;1.00
24224;DHT22;12359;49.716;9.212;2023-07-02T07:25:22;22.00;1.00
24224;DHT22;12359;49.716;9.212;2023-07-02T07:27:47;21.90;1.30
24224;DHT22;12359;49.716;9.212;2023-07-02T07:30:13;21.90;1.00
24224;DHT22;12359;49.716;9.212;2023-07-02T07:32:40;22.00;1.00
24224;DHT22;12359;49.716;9.212;2023-07-02T07:35:07;22.80;1.00
24224;DHT22;12359;49.716;9.212;2023-07-02T07:37:33;23.30;1.00
24224;DHT22;12359;49.716;9.212;2023-07-02T07:39:59;24.00;1.00
24224;DHT22;12359;49.716;9.212;2023-07-02T07:42:24;25.20;1.00
24224;DHT22;12359;49.716;9.212;2023-07-02T07:44:50;26.10;1.00
24224;DHT22;12359;49.716;9.212;2023-07-02T07:47:16;26.80;1.00
24224;DHT22;12359;49.716;9.212;2023-07-02T07:49:41;27.10;1.00
24224;DHT22;12359;49.716;9.212;2023-07-02T07:52:07;27.40;99.90
24224;DHT22;12359;49.716;9.212;2023-07-02T07:54:33;27.80;99.90
24224;DHT22;12359;49.716;9.212;2023-07-02T07:57:04;28.00;99.90
24224;DHT22;12359;49.716;9.212;2023-07-02T07:59:30;28.20;99.90
24224;DHT22;12359;49.716;9.212;2023-07-02T08:01:55;28.40;99.90
24224;DHT22;12359;49.716;9.212;2023-07-02T08:04:21;28.70;99.90
24224;DHT22;12359;49.716;9.212;2023-07-02T08:06:47;28.70;99.90
24224;DHT22;12359;49.716;9.212;2023-07-02T08:09:12;28.60;99.90
24224;DHT22;12359;49.716;9.212;2023-07-02T08:11:38;28.10;99.90
24224;DHT22;12359;49.716;9.212;2023-07-02T08:14:04;27.90;99.90
24224;DHT22;12359;49.716;9.212;2023-07-02T08:16:29;27.80;99.90
24224;DHT22;12359;49.716;9.212;2023-07-02T08:18:55;27.80;99.90
24224;DHT22;12359;49.716;9.212;2023-07-02T08:21:21;27.70;99.90
24224;DHT22;12359;49.716;9.212;2023-07-02T08:23:46;27.40;99.90
24224;DHT22;12359;49.716;9.212;2023-07-02T08:26:12;27.70;99.90
24224;DHT22;12359;49.716;9.212;2023-07-02T08:28:39;28.30;99.90
24224;DHT22;12359;49.716;9.212;2023-07-02T08:31:05;28.60;99.90
24224;DHT22;12359;49.716;9.212;2023-07-02T08:33:31;29.10;99.90
24224;DHT22;12359;49.716;9.212;2023-07-02T08:35:57;29.30;99.90
24224;DHT22;12359;49.716;9.212;2023-07-02T08:38:23;29.10;99.90
24224;DHT22;12359;49.716;9.212;2023-07-02T08:40:52;29.10;99.90
24224;DHT22;12359;49.716;9.212;2023-07-02T08:43:17;29.20;99.90
24224;DHT22;12359;49.716;9.212;2023-07-02T08:45:43;29.50;99.90
24224;DHT22;12359;49.716;9.212;2023-07-02T08:48:10;29.40;99.90
24224;DHT22;12359;49.716;9.212;2023-07-02T08:50:37;28.80;99.90
24224;DHT22;12359;49.716;9.212;2023-07-02T08:53:02;28.70;99.90
24224;DHT22;12359;49.716;9.212;2023-07-02T08:55:28;29.10;99.90
24224;DHT22;12359;49.716;9.212;2023-07-02T08:57:56;29.40;99.90
24224;DHT22;12359;49.716;9.212;2023-07-02T09:00:25;29.20;99.90
24224;DHT22;12359;49.716;9.212;2023-07-02T09:02:51;29.10;99.90
24224;DHT22;12359;49.716;9.212;2023-07-02T09:05:17;28.90;99.90
24224;DHT22;12359;49.716;9.212;2023-07-02T09:07:49;28.80;99.90
24224;DHT22;12359;49.716;9.212;2023-07-02T09:10:29;29.10;99.90
24224;DHT22;12359;49.716;9.212;2023-07-02T09:13:08;28.80;99.90
24224;DHT22;12359;49.716;9.212;2023-07-02T09:15:38;29.00;99.90
24224;DHT22;12359;49.716;9.212;2023-07-02T09:18:25;29.20;99.90
24224;DHT22;12359;49.716;9.212;2023-07-02T09:20:52;29.50;99.90
24224;DHT22;12359;49.716;9.212;2023-07-02T09:23:20;29.70;99.90
24224;DHT22;12359;49.716;9.212;2023-07-02T09:25:46;29.90;99.90
24224;DHT22;12359;49.716;9.212;2023-07-02T09:28:21;30.00;99.90
24224;DHT22;12359;49.716;9.212;2023-07-02T09:30:56;30.20;99.90
24224;DHT22;12359;49.716;9.212;2023-07-02T09:33:24;30.50;99.90
24224;DHT22;12359;49.716;9.212;2023-07-02T09:35:50;30.50;99.90
24224;DHT22;12359;49.716;9.212;2023-07-02T09:38:19;30.70;99.90
24224;DHT22;12359;49.716;9.212;2023-07-02T09:40:50;30.40;99.90
24224;DHT22;12359;49.716;9.212;2023-07-02T09:43:16;29.80;99.90
24224;DHT22;12359;49.716;9.212;2023-07-02T09:45:47;30.10;99.90
24224;DHT22;12359;49.716;9.212;2023-07-02T09:48:14;30.40;99.90
24224;DHT22;12359;49.716;9.212;2023-07-02T09:50:47;30.40;99.90
24224;DHT22;12359;49.716;9.212;2023-07-02T09:53:13;30.10;99.90
24224;DHT22;12359;49.716;9.212;2023-07-02T09:55:41;29.70;99.90
24224;DHT22;12359;49.716;9.212;2023-07-02T09:58:07;29.70;99.90
24224;DHT22;12359;49.716;9.212;2023-07-02T10:00:33;29.60;99.90
24224;DHT22;12359;49.716;9.212;2023-07-02T10:02:59;29.00;99.90
24224;DHT22;12359;49.716;9.212;2023-07-02T10:05:35;28.60;99.90
24224;DHT22;12359;49.716;9.212;2023-07-02T10:08:21;28.10;99.90
24224;DHT22;12359;49.716;9.212;2023-07-02T10:10:52;27.50;99.90
24224;DHT22;12359;49.716;9.212;2023-07-02T10:13:27;27.50;99.90
24224;DHT22;12359;49.716;9.212;2023-07-02T10:16:03;27.80;99.90
24224;DHT22;12359;49.716;9.212;2023-07-02T10:18:29;28.50;99.90
24224;DHT22;12359;49.716;9.212;2023-07-02T10:20:55;28.90;99.90
24224;DHT22;12359;49.716;9.212;2023-07-02T10:23:35;29.10;99.90
24224;DHT22;12359;49.716;9.212;2023-07-02T10:26:18;29.00;99.90
24224;DHT22;12359;49.716;9.212;2023-07-02T10:28:59;28.70;99.90
24224;DHT22;12359;49.716;9.212;2023-07-02T10:31:24;28.40;99.90
24224;DHT22;12359;49.716;9.212;2023-07-02T10:33:50;28.70;99.90
24224;DHT22;12359;49.716;9.212;2023-07-02T10:36:23;28.90;99.90
24224;DHT22;12359;49.716;9.212;2023-07-02T10:38:50;28.90;99.90
24224;DHT22;12359;49.716;9.212;2023-07-02T10:41:29;29.10;99.90
24224;DHT22;12359;49.716;9.212;2023-07-02T10:44:08;29.40;99.90
24224;DHT22;12359;49.716;9.212;2023-07-02T10:46:43;29.70;99.90
24224;DHT22;12359;49.716;9.212;2023-07-02T10:49:09;30.10;99.90
24224;DHT22;12359;49.716;9.212;2023-07-02T10:51:34;29.90;99.90
24224;DHT22;12359;49.716;9.212;2023-07-02T10:54:01;29.80;99.90
24224;DHT22;12359;49.716;9.212;2023-07-02T10:56:28;30.00;99.90
24224;DHT22;12359;49.716;9.212;2023-07-02T10:58:54;30.20;99.90
24224;DHT22;12359;49.716;9.212;2023-07-02T11:06:23;30.30;99.90
24224;DHT22;12359;49.716;9.212;2023-07-02T11:08:49;29.70;99.90
24224;DHT22;12359;49.716;9.212;2023-07-02T11:11:15;29.70;99.90
24224;DHT22;12359;49.716;9.212;2023-07-02T11:13:48;30.00;99.90
24224;DHT22;12359;49.716;9.212;2023-07-02T11:16:25;30.40;99.90
24224;DHT22;12359;49.716;9.212;2023-07-02T11:19:06;30.70;99.90
24224;DHT22;12359;49.716;9.212;2023-07-02T11:21:36;30.20;99.90
24224;DHT22;12359;49.716;9.212;2023-07-02T11:24:06;29.40;99.90
24224;DHT22;12359;49.716;9.212;2023-07-02T11:26:37;29.20;99.90
24224;DHT22;12359;49.716;9.212;2023-07-02T11:29:03;29.20;99.90
24224;DHT22;12359;49.716;9.212;2023-07-02T11:31:29;28.70;99.90
24224;DHT22;12359;49.716;9.212;2023-07-02T11:33:55;28.30;99.90
24224;DHT22;12359;49.716;9.212;2023-07-02T11:36:24;28.10;99.90
24224;DHT22;12359;49.716;9.212;2023-07-02T11:38:51;28.50;99.90
24224;DHT22;12359;49.716;9.212;2023-07-02T11:41:17;28.80;99.90
24224;DHT22;12359;49.716;9.212;2023-07-02T11:43:46;29.30;99.90
24224;DHT22;12359;49.716;9.212;2023-07-02T11:46:13;29.60;99.90
24224;DHT22;12359;49.716;9.212;2023-07-02T11:48:39;30.00;99.90
24224;DHT22;12359;49.716;9.212;2023-07-02T11:51:04;30.10;99.90
24224;DHT22;12359;49.716;9.212;2023-07-02T11:53:30;30.20;99.90
24224;DHT22;12359;49.716;9.212;2023-07-02T11:55:56;29.80;99.90
24224;DHT22;12359;49.716;9.212;2023-07-02T11:58:21;29.70;99.90
24224;DHT22;12359;49.716;9.212;2023-07-02T12:00:47;30.00;99.90
24224;DHT22;12359;49.716;9.212;2023-07-02T12:03:13;30.10;99.90
24224;DHT22;12359;49.716;9.212;2023-07-02T12:05:38;30.10;99.90
24224;DHT22;12359;49.716;9.212;2023-07-02T12:08:04;30.10;99.90
24224;DHT22;12359;49.716;9.212;2023-07-02T12:10:30;30.20;99.90
24224;DHT22;12359;49.716;9.212;2023-07-02T12:12:55;30.50;99.90
24224;DHT22;12359;49.716;9.212;2023-07-02T12:15:21;30.20;99.90
24224;DHT22;12359;49.716;9.212;2023-07-02T12:17:47;29.50;99.90
24224;DHT22;12359;49.716;9.212;2023-07-02T12:20:12;29.00;99.90
24224;DHT22;12359;49.716;9.212;2023-07-02T12:22:38;28.70;99.90
24224;DHT22;12359;49.716;9.212;2023-07-02T12:25:05;28.30;99.90
24224;DHT22;12359;49.716;9.212;2023-07-02T12:27:30;28.10;99.90
24224;DHT22;12359;49.716;9.212;2023-07-02T12:29:56;28.00;99.90
24224;DHT22;12359;49.716;9.212;2023-07-02T12:32:22;27.80;99.90
24224;DHT22;12359;49.716;9.212;2023-07-02T12:34:48;27.50;99.90
24224;DHT22;12359;49.716;9.212;2023-07-02T12:37:13;27.80;99.90
24224;DHT22;12359;49.716;9.212;2023-07-02T12:39:42;27.90;99.90
24224;DHT22;12359;49.716;9.212;2023-07-02T12:42:08;27.90;99.90
24224;DHT22;12359;49.716;9.212;2023-07-02T12:44:34;27.80;99.90
24224;DHT22;12359;49.716;9.212;2023-07-02T12:47:00;27.80;99.90
24224;DHT22;12359;49.716;9.212;2023-07-02T12:49:26;28.10;99.90
24224;DHT22;12359;49.716;9.212;2023-07-02T12:51:51;28.20;99.90
24224;DHT22;12359;49.716;9.212;2023-07-02T12:54:17;28.30;99.90
24224;DHT22;12359;49.716;9.212;2023-07-02T12:56:42;28.20;99.90
24224;DHT22;12359;49.716;9.212;2023-07-02T12:59:08;28.10;99.90
24224;DHT22;12359;49.716;9.212;2023-07-02T13:01:34;28.00;99.90
24224;DHT22;12359;49.716;9.212;2023-07-02T13:04:00;27.80;99.90
24224;DHT22;12359;49.716;9.212;2023-07-02T13:06:26;27.70;99.90
24224;DHT22;12359;49.716;9.212;2023-07-02T13:08:53;27.50;99.90
24224;DHT22;12359;49.716;9.212;2023-07-02T13:11:21;27.40;99.90
24224;DHT22;12359;49.716;9.212;2023-07-02T13:13:47;27.70;99.90
24224;DHT22;12359;49.716;9.212;2023-07-02T13:16:13;28.20;99.90
24224;DHT22;12359;49.716;9.212;2023-07-02T13:18:38;28.50;99.90
24224;DHT22;12359;49.716;9.212;2023-07-02T13:21:04;28.80;99.90
24224;DHT22;12359;49.716;9.212;2023-07-02T13:23:30;28.80;99.90
24224;DHT22;12359;49.716;9.212;2023-07-02T13:25:55;29.00;99.90
24224;DHT22;12359;49.716;9.212;2023-07-02T13:28:21;29.10;99.90
24224;DHT22;12359;49.716;9.212;2023-07-02T13:30:47;29.20;99.90
24224;DHT22;12359;49.716;9.212;2023-07-02T13:33:12;29.00;99.90
24224;DHT22;12359;49.716;9.212;2023-07-02T13:35:38;28.80;99.90
24224;DHT22;12359;49.716;9.212;2023-07-02T13:38:04;28.50;99.90
24224;DHT22;12359;49.716;9.212;2023-07-02T13:40:30;28.30;99.90
24224;DHT22;12359;49.716;9.212;2023-07-02T13:42:56;28.30;99.90
24224;DHT22;12359;49.716;9.212;2023-07-02T13:45:22;28.50;99.90
24224;DHT22;12359;49.716;9.212;2023-07-02T13:47:47;28.40;99.90
24224;DHT22;12359;49.716;9.212;2023-07-02T13:50:13;28.20;99.90
24224;DHT22;12359;49.716;9.212;2023-07-02T13:52:39;28.00;99.90
24224;DHT22;12359;49.716;9.212;2023-07-02T13:55:05;28.30;99.90
24224;DHT22;12359;49.716;9.212;2023-07-02T13:57:30;28.50;99.90
24224;DHT22;12359;49.716;9.212;2023-07-02T13:59:56;28.50;99.90
24224;DHT22;12359;49.716;9.212;2023-07-02T14:02:23;28.30;99.90
24224;DHT22;12359;49.716;9.212;2023-07-02T14:04:48;28.00;99.90
24224;DHT22;12359;49.716;9.212;2023-07-02T14:07:14;27.90;99.90
24224;DHT22;12359;49.716;9.212;2023-07-02T14:09:40;28.10;99.90
24224;DHT22;12359;49.716;9.212;2023-07-02T14:12:06;28.20;99.90
24224;DHT22;12359;49.716;9.212;2023-07-02T14:14:32;28.10;99.90
24224;DHT22;12359;49.716;9.212;2023-07-02T14:16:57;28.00;99.90
24224;DHT22;12359;49.716;9.212;2023-07-02T14:19:23;27.90;99.90
24224;DHT22;12359;49.716;9.212;2023-07-02T14:21:48;28.00;99.90
24224;DHT22;12359;49.716;9.212;2023-07-02T14:24:14;28.00;99.90
24224;DHT22;12359;49.716;9.212;2023-07-02T14:26:40;28.00;99.90
24224;DHT22;12359;49.716;9.212;2023-07-02T14:29:06;27.70;99.90
24224;DHT22;12359;49.716;9.212;2023-07-02T14:31:31;27.70;99.90
24224;DHT22;12359;49.716;9.212;2023-07-02T14:33:57;27.70;99.90
24224;DHT22;12359;49.716;9.212;2023-07-02T14:36:23;27.60;99.90
24224;DHT22;12359;49.716;9.212;2023-07-02T14:38:48;27.60;99.90
24224;DHT22;12359;49.716;9.212;2023-07-02T14:41:14;27.60;99.90
24224;DHT22;12359;49.716;9.212;2023-07-02T14:43:40;27.40;99.90
24224;DHT22;12359;49.716;9.212;2023-07-02T14:46:05;27.50;99.90
24224;DHT22;12359;49.716;9.212;2023-07-02T14:48:31;27.60;99.90
24224;DHT22;12359;49.716;9.212;2023-07-02T14:50:59;27.60;99.90
24224;DHT22;12359;49.716;9.212;2023-07-02T14:53:27;27.60;99.90
24224;DHT22;12359;49.716;9.212;2023-07-02T14:55:58;27.60;99.90
24224;DHT22;12359;49.716;9.212;2023-07-02T14:58:25;27.60;99.90
24224;DHT22;12359;49.716;9.212;2023-07-02T15:00:53;27.60;99.90
24224;DHT22;12359;49.716;9.212;2023-07-02T15:03:20;27.60;99.90
24224;DHT22;12359;49.716;9.212;2023-07-02T15:05:48;27.50;99.90
24224;DHT22;12359;49.716;9.212;2023-07-02T15:08:15;27.50;99.90
24224;DHT22;12359;49.716;9.212;2023-07-02T15:10:49;27.50;99.90
24224;DHT22;12359;49.716;9.212;2023-07-02T15:13:15;27.50;99.90
24224;DHT22;12359;49.716;9.212;2023-07-02T15:15:43;27.50;99.90
24224;DHT22;12359;49.716;9.212;2023-07-02T15:18:09;27.40;99.90
24224;DHT22;12359;49.716;9.212;2023-07-02T15:20:35;27.30;99.90
24224;DHT22;12359;49.716;9.212;2023-07-02T15:23:01;27.30;99.90
24224;DHT22;12359;49.716;9.212;2023-07-02T15:25:27;27.30;99.90
24224;DHT22;12359;49.716;9.212;2023-07-02T15:27:55;27.20;99.90
24224;DHT22;12359;49.716;9.212;2023-07-02T15:30:20;26.80;99.90
24224;DHT22;12359;49.716;9.212;2023-07-02T15:32:46;26.80;99.90
24224;DHT22;12359;49.716;9.212;2023-07-02T15:35:12;26.90;99.90